Canal Winchester, Ohio
Current Conditions -  °F | °C
As of 11:15 PM on Wednesday 28 Jan 2015 (Local Time) from KLCK Reporting Station
Clear Clear  
Wind Chill: 18°   Ceiling: Unl
Heat Index: 26°   Visibility: 10mi
Dew Point: 17°   Wind: 7mph
Humidity: 70%   Direction: 140°SE
Pressure: 30.21"   Gusts: NA
Location:  39.85°N, 82.82°W
Report Text: KLCK 290415Z AUTO 14006KT 10SM CLR M04/M08 A3021 RMK AO2 T10361084
Loading
Personal Weather Stations






























Interactive Weather Map New forecast layout! Learn more

10-Day Weather Forecast

Advertisements
Track Severe Weather on mobile